sensor_id;sensor_type;location;lat;lon;timestamp;P1;durP1;ratioP1;P2;durP2;ratioP2
69629;SDS011;56857;52.212;5.496;2023-02-10T00:01:43;26.88;;;13.05;;
69629;SDS011;56857;52.212;5.496;2023-02-10T00:04:10;24.42;;;12.13;;
69629;SDS011;56857;52.212;5.496;2023-02-10T00:06:36;25.88;;;15.98;;
69629;SDS011;56857;52.212;5.496;2023-02-10T00:09:03;21.40;;;12.05;;
69629;SDS011;56857;52.212;5.496;2023-02-10T00:11:28;23.98;;;12.30;;
69629;SDS011;56857;52.212;5.496;2023-02-10T00:14:02;22.85;;;12.10;;
69629;SDS011;56857;52.212;5.496;2023-02-10T00:16:27;25.67;;;11.88;;
69629;SDS011;56857;52.212;5.496;2023-02-10T00:18:52;25.55;;;11.55;;
69629;SDS011;56857;52.212;5.496;2023-02-10T00:21:19;22.35;;;11.65;;
69629;SDS011;56857;52.212;5.496;2023-02-10T00:23:44;23.63;;;10.43;;
69629;SDS011;56857;52.212;5.496;2023-02-10T00:26:10;21.73;;;11.82;;
69629;SDS011;56857;52.212;5.496;2023-02-10T00:28:38;26.90;;;11.20;;
69629;SDS011;56857;52.212;5.496;2023-02-10T00:31:10;24.55;;;10.30;;
69629;SDS011;56857;52.212;5.496;2023-02-10T00:33:38;22.35;;;10.15;;
69629;SDS011;56857;52.212;5.496;2023-02-10T00:36:06;23.77;;;9.82;;
69629;SDS011;56857;52.212;5.496;2023-02-10T00:38:33;22.08;;;9.23;;
69629;SDS011;56857;52.212;5.496;2023-02-10T00:41:03;21.42;;;9.75;;
69629;SDS011;56857;52.212;5.496;2023-02-10T00:43:31;19.55;;;8.90;;
69629;SDS011;56857;52.212;5.496;2023-02-10T00:45:57;22.63;;;9.85;;
69629;SDS011;56857;52.212;5.496;2023-02-10T00:48:23;20.30;;;9.20;;
69629;SDS011;56857;52.212;5.496;2023-02-10T00:50:48;20.90;;;9.18;;
69629;SDS011;56857;52.212;5.496;2023-02-10T00:53:14;18.95;;;8.45;;
69629;SDS011;56857;52.212;5.496;2023-02-10T00:58:04;18.08;;;8.52;;
69629;SDS011;56857;52.212;5.496;2023-02-10T01:00:29;23.33;;;8.85;;
69629;SDS011;56857;52.212;5.496;2023-02-10T01:02:55;18.48;;;8.57;;
69629;SDS011;56857;52.212;5.496;2023-02-10T01:05:22;16.05;;;8.05;;
69629;SDS011;56857;52.212;5.496;2023-02-10T01:07:48;17.90;;;8.68;;
69629;SDS011;56857;52.212;5.496;2023-02-10T01:10:14;17.35;;;8.52;;
69629;SDS011;56857;52.212;5.496;2023-02-10T01:12:40;21.98;;;8.00;;
69629;SDS011;56857;52.212;5.496;2023-02-10T01:15:05;17.05;;;7.63;;
69629;SDS011;56857;52.212;5.496;2023-02-10T01:17:31;19.10;;;7.45;;
69629;SDS011;56857;52.212;5.496;2023-02-10T01:19:56;21.30;;;7.85;;
69629;SDS011;56857;52.212;5.496;2023-02-10T01:22:21;17.40;;;7.95;;
69629;SDS011;56857;52.212;5.496;2023-02-10T01:24:47;17.05;;;7.68;;
69629;SDS011;56857;52.212;5.496;2023-02-10T01:27:12;16.05;;;6.97;;
69629;SDS011;56857;52.212;5.496;2023-02-10T01:29:39;20.67;;;7.82;;
69629;SDS011;56857;52.212;5.496;2023-02-10T01:32:04;19.85;;;7.38;;
69629;SDS011;56857;52.212;5.496;2023-02-10T01:34:29;20.98;;;7.72;;
69629;SDS011;56857;52.212;5.496;2023-02-10T01:36:57;14.77;;;7.05;;
69629;SDS011;56857;52.212;5.496;2023-02-10T01:39:22;20.35;;;8.13;;
69629;SDS011;56857;52.212;5.496;2023-02-10T01:41:47;20.85;;;8.82;;
69629;SDS011;56857;52.212;5.496;2023-02-10T01:46:44;19.98;;;9.07;;
69629;SDS011;56857;52.212;5.496;2023-02-10T01:49:11;17.55;;;9.25;;
69629;SDS011;56857;52.212;5.496;2023-02-10T01:51:51;19.13;;;9.02;;
69629;SDS011;56857;52.212;5.496;2023-02-10T01:54:23;23.33;;;11.80;;
69629;SDS011;56857;52.212;5.496;2023-02-10T01:56:54;16.52;;;8.77;;
69629;SDS011;56857;52.212;5.496;2023-02-10T01:59:20;18.70;;;8.65;;
69629;SDS011;56857;52.212;5.496;2023-02-10T02:01:47;18.02;;;8.55;;
69629;SDS011;56857;52.212;5.496;2023-02-10T02:04:14;23.38;;;10.68;;
69629;SDS011;56857;52.212;5.496;2023-02-10T02:06:39;23.70;;;10.98;;
69629;SDS011;56857;52.212;5.496;2023-02-10T02:09:06;20.92;;;11.35;;
69629;SDS011;56857;52.212;5.496;2023-02-10T02:25:28;23.48;;;10.20;;
69629;SDS011;56857;52.212;5.496;2023-02-10T02:37:18;19.98;;;11.20;;
69629;SDS011;56857;52.212;5.496;2023-02-10T02:39:50;25.60;;;12.88;;
69629;SDS011;56857;52.212;5.496;2023-02-10T02:42:18;22.85;;;11.43;;
69629;SDS011;56857;52.212;5.496;2023-02-10T02:44:49;21.33;;;10.45;;
69629;SDS011;56857;52.212;5.496;2023-02-10T02:49:56;22.67;;;12.23;;
69629;SDS011;56857;52.212;5.496;2023-02-10T03:00:58;25.48;;;10.25;;
69629;SDS011;56857;52.212;5.496;2023-02-10T03:03:28;23.55;;;11.18;;
69629;SDS011;56857;52.212;5.496;2023-02-10T03:05:53;27.70;;;11.48;;
69629;SDS011;56857;52.212;5.496;2023-02-10T03:08:19;21.63;;;11.57;;
69629;SDS011;56857;52.212;5.496;2023-02-10T03:13:09;24.93;;;12.43;;
69629;SDS011;56857;52.212;5.496;2023-02-10T03:18:00;21.10;;;11.68;;
69629;SDS011;56857;52.212;5.496;2023-02-10T03:22:53;22.23;;;10.80;;
69629;SDS011;56857;52.212;5.496;2023-02-10T03:25:18;23.63;;;12.15;;
69629;SDS011;56857;52.212;5.496;2023-02-10T03:27:43;24.13;;;12.10;;
69629;SDS011;56857;52.212;5.496;2023-02-10T03:32:34;26.60;;;11.33;;
69629;SDS011;56857;52.212;5.496;2023-02-10T03:37:24;22.95;;;10.73;;
69629;SDS011;56857;52.212;5.496;2023-02-10T03:42:15;23.52;;;11.40;;
69629;SDS011;56857;52.212;5.496;2023-02-10T03:44:40;25.30;;;12.80;;
69629;SDS011;56857;52.212;5.496;2023-02-10T03:49:31;18.57;;;10.27;;
69629;SDS011;56857;52.212;5.496;2023-02-10T03:54:21;21.57;;;10.23;;
69629;SDS011;56857;52.212;5.496;2023-02-10T03:56:47;25.73;;;11.37;;
69629;SDS011;56857;52.212;5.496;2023-02-10T03:59:12;21.52;;;11.43;;
69629;SDS011;56857;52.212;5.496;2023-02-10T04:04:03;24.37;;;11.63;;
69629;SDS011;56857;52.212;5.496;2023-02-10T04:06:28;23.63;;;11.73;;
69629;SDS011;56857;52.212;5.496;2023-02-10T04:11:19;28.40;;;12.37;;
69629;SDS011;56857;52.212;5.496;2023-02-10T04:13:44;21.02;;;12.00;;
69629;SDS011;56857;52.212;5.496;2023-02-10T04:18:37;28.48;;;12.00;;
69629;SDS011;56857;52.212;5.496;2023-02-10T04:23:28;28.27;;;12.48;;
69629;SDS011;56857;52.212;5.496;2023-02-10T04:25:54;28.40;;;13.38;;
69629;SDS011;56857;52.212;5.496;2023-02-10T04:28:19;25.05;;;12.13;;
69629;SDS011;56857;52.212;5.496;2023-02-10T04:30:45;29.85;;;13.48;;
69629;SDS011;56857;52.212;5.496;2023-02-10T04:33:10;24.48;;;13.30;;
69629;SDS011;56857;52.212;5.496;2023-02-10T04:38:01;27.27;;;13.40;;
69629;SDS011;56857;52.212;5.496;2023-02-10T04:42:52;26.40;;;13.70;;
69629;SDS011;56857;52.212;5.496;2023-02-10T04:47:42;30.17;;;14.48;;
69629;SDS011;56857;52.212;5.496;2023-02-10T04:52:33;32.90;;;14.50;;
69629;SDS011;56857;52.212;5.496;2023-02-10T04:57:23;33.15;;;15.18;;
69629;SDS011;56857;52.212;5.496;2023-02-10T05:02:14;39.03;;;15.38;;
69629;SDS011;56857;52.212;5.496;2023-02-10T05:07:05;31.67;;;14.27;;
69629;SDS011;56857;52.212;5.496;2023-02-10T05:11:55;33.83;;;15.77;;
69629;SDS011;56857;52.212;5.496;2023-02-10T05:16:46;34.38;;;16.23;;
69629;SDS011;56857;52.212;5.496;2023-02-10T05:19:12;29.48;;;14.95;;
69629;SDS011;56857;52.212;5.496;2023-02-10T05:21:37;33.80;;;15.73;;
69629;SDS011;56857;52.212;5.496;2023-02-10T05:26:27;33.50;;;15.68;;
69629;SDS011;56857;52.212;5.496;2023-02-10T05:28:53;32.03;;;16.03;;
69629;SDS011;56857;52.212;5.496;2023-02-10T05:33:46;32.17;;;16.27;;
69629;SDS011;56857;52.212;5.496;2023-02-10T05:38:37;35.75;;;17.40;;
69629;SDS011;56857;52.212;5.496;2023-02-10T05:41:03;35.38;;;16.67;;
69629;SDS011;56857;52.212;5.496;2023-02-10T05:45:54;37.43;;;17.27;;
69629;SDS011;56857;52.212;5.496;2023-02-10T05:48:19;36.63;;;17.07;;
69629;SDS011;56857;52.212;5.496;2023-02-10T05:53:17;33.17;;;16.30;;
69629;SDS011;56857;52.212;5.496;2023-02-10T05:55:44;38.80;;;17.33;;
69629;SDS011;56857;52.212;5.496;2023-02-10T05:58:10;38.40;;;16.90;;
69629;SDS011;56857;52.212;5.496;2023-02-10T06:03:01;36.28;;;16.33;;
69629;SDS011;56857;52.212;5.496;2023-02-10T06:07:51;36.58;;;18.30;;
69629;SDS011;56857;52.212;5.496;2023-02-10T06:12:42;40.47;;;19.97;;
69629;SDS011;56857;52.212;5.496;2023-02-10T06:17:33;37.42;;;17.35;;
69629;SDS011;56857;52.212;5.496;2023-02-10T06:19:58;39.33;;;18.90;;
69629;SDS011;56857;52.212;5.496;2023-02-10T06:22:23;40.67;;;19.27;;
69629;SDS011;56857;52.212;5.496;2023-02-10T06:27:14;36.10;;;17.40;;
69629;SDS011;56857;52.212;5.496;2023-02-10T06:32:04;38.47;;;19.33;;
69629;SDS011;56857;52.212;5.496;2023-02-10T06:36:55;39.33;;;18.23;;
69629;SDS011;56857;52.212;5.496;2023-02-10T06:41:46;37.97;;;19.47;;
69629;SDS011;56857;52.212;5.496;2023-02-10T06:46:36;38.77;;;19.80;;
69629;SDS011;56857;52.212;5.496;2023-02-10T06:51:27;37.70;;;18.42;;
69629;SDS011;56857;52.212;5.496;2023-02-10T06:56:18;36.90;;;16.87;;
69629;SDS011;56857;52.212;5.496;2023-02-10T07:01:09;34.20;;;16.98;;
69629;SDS011;56857;52.212;5.496;2023-02-10T07:03:40;36.03;;;17.73;;
69629;SDS011;56857;52.212;5.496;2023-02-10T07:08:31;36.00;;;17.50;;
69629;SDS011;56857;52.212;5.496;2023-02-10T07:10:56;36.95;;;17.80;;
69629;SDS011;56857;52.212;5.496;2023-02-10T07:15:47;35.20;;;16.73;;
69629;SDS011;56857;52.212;5.496;2023-02-10T07:20:38;32.83;;;16.55;;
69629;SDS011;56857;52.212;5.496;2023-02-10T07:25:28;35.43;;;15.50;;
69629;SDS011;56857;52.212;5.496;2023-02-10T07:30:20;35.15;;;16.35;;
69629;SDS011;56857;52.212;5.496;2023-02-10T07:35:10;31.80;;;16.17;;
69629;SDS011;56857;52.212;5.496;2023-02-10T07:40:02;38.30;;;17.55;;
69629;SDS011;56857;52.212;5.496;2023-02-10T07:44:53;38.25;;;16.13;;
69629;SDS011;56857;52.212;5.496;2023-02-10T07:49:44;39.55;;;16.58;;
69629;SDS011;56857;52.212;5.496;2023-02-10T07:54:35;33.03;;;15.50;;
69629;SDS011;56857;52.212;5.496;2023-02-10T07:57:01;35.13;;;16.70;;
69629;SDS011;56857;52.212;5.496;2023-02-10T08:01:51;31.57;;;15.30;;
69629;SDS011;56857;52.212;5.496;2023-02-10T08:04:17;36.10;;;16.25;;
69629;SDS011;56857;52.212;5.496;2023-02-10T08:09:07;35.60;;;16.15;;
69629;SDS011;56857;52.212;5.496;2023-02-10T08:11:33;34.25;;;16.33;;
69629;SDS011;56857;52.212;5.496;2023-02-10T08:16:25;32.75;;;15.68;;
69629;SDS011;56857;52.212;5.496;2023-02-10T08:18:52;27.90;;;13.73;;
69629;SDS011;56857;52.212;5.496;2023-02-10T08:23:42;33.80;;;14.47;;
69629;SDS011;56857;52.212;5.496;2023-02-10T08:28:35;27.60;;;13.80;;
69629;SDS011;56857;52.212;5.496;2023-02-10T08:31:01;30.75;;;14.18;;
69629;SDS011;56857;52.212;5.496;2023-02-10T08:33:29;33.55;;;13.60;;
69629;SDS011;56857;52.212;5.496;2023-02-10T08:38:20;31.35;;;14.90;;
69629;SDS011;56857;52.212;5.496;2023-02-10T08:43:17;27.73;;;13.48;;
69629;SDS011;56857;52.212;5.496;2023-02-10T08:45:43;26.03;;;13.97;;
69629;SDS011;56857;52.212;5.496;2023-02-10T08:50:34;34.15;;;14.93;;
69629;SDS011;56857;52.212;5.496;2023-02-10T08:55:24;28.80;;;14.40;;
69629;SDS011;56857;52.212;5.496;2023-02-10T08:57:50;30.38;;;14.13;;
69629;SDS011;56857;52.212;5.496;2023-02-10T09:02:40;30.83;;;14.45;;
69629;SDS011;56857;52.212;5.496;2023-02-10T09:05:06;28.20;;;14.37;;
69629;SDS011;56857;52.212;5.496;2023-02-10T09:09:57;28.23;;;14.57;;
69629;SDS011;56857;52.212;5.496;2023-02-10T09:12:23;28.45;;;14.95;;
69629;SDS011;56857;52.212;5.496;2023-02-10T09:14:48;29.50;;;14.00;;
69629;SDS011;56857;52.212;5.496;2023-02-10T09:19:38;28.27;;;15.90;;
69629;SDS011;56857;52.212;5.496;2023-02-10T09:24:29;30.45;;;14.65;;
69629;SDS011;56857;52.212;5.496;2023-02-10T09:26:55;30.27;;;15.10;;
69629;SDS011;56857;52.212;5.496;2023-02-10T09:29:21;30.17;;;16.10;;
69629;SDS011;56857;52.212;5.496;2023-02-10T09:31:46;28.02;;;15.63;;
69629;SDS011;56857;52.212;5.496;2023-02-10T09:36:36;29.50;;;15.27;;
69629;SDS011;56857;52.212;5.496;2023-02-10T09:39:02;30.38;;;16.35;;
69629;SDS011;56857;52.212;5.496;2023-02-10T09:44:18;29.77;;;15.85;;
69629;SDS011;56857;52.212;5.496;2023-02-10T09:55:16;30.15;;;15.48;;
69629;SDS011;56857;52.212;5.496;2023-02-10T09:57:58;33.15;;;17.65;;
69629;SDS011;56857;52.212;5.496;2023-02-10T10:00:30;32.28;;;16.67;;
69629;SDS011;56857;52.212;5.496;2023-02-10T10:02:58;31.33;;;17.02;;
69629;SDS011;56857;52.212;5.496;2023-02-10T10:08:03;33.40;;;17.92;;
69629;SDS011;56857;52.212;5.496;2023-02-10T10:10:38;35.97;;;19.52;;
69629;SDS011;56857;52.212;5.496;2023-02-10T10:13:23;33.55;;;17.98;;
69629;SDS011;56857;52.212;5.496;2023-02-10T10:15:55;34.53;;;18.00;;
69629;SDS011;56857;52.212;5.496;2023-02-10T10:18:24;31.50;;;17.05;;
69629;SDS011;56857;52.212;5.496;2023-02-10T10:21:14;30.77;;;17.80;;
69629;SDS011;56857;52.212;5.496;2023-02-10T10:26:49;30.10;;;14.98;;
69629;SDS011;56857;52.212;5.496;2023-02-10T10:32:11;31.45;;;17.77;;
69629;SDS011;56857;52.212;5.496;2023-02-10T10:35:02;31.95;;;16.25;;
69629;SDS011;56857;52.212;5.496;2023-02-10T10:37:36;31.40;;;15.25;;
69629;SDS011;56857;52.212;5.496;2023-02-10T10:40:03;32.92;;;17.25;;
69629;SDS011;56857;52.212;5.496;2023-02-10T10:45:19;29.10;;;15.50;;
69629;SDS011;56857;52.212;5.496;2023-02-10T10:47:55;32.05;;;15.18;;
69629;SDS011;56857;52.212;5.496;2023-02-10T10:50:25;27.48;;;14.30;;
69629;SDS011;56857;52.212;5.496;2023-02-10T10:52:53;31.42;;;14.43;;
69629;SDS011;56857;52.212;5.496;2023-02-10T10:55:28;25.92;;;13.60;;
69629;SDS011;56857;52.212;5.496;2023-02-10T10:58:01;33.05;;;15.07;;
69629;SDS011;56857;52.212;5.496;2023-02-10T11:00:35;28.23;;;14.15;;
69629;SDS011;56857;52.212;5.496;2023-02-10T11:03:03;31.83;;;14.73;;
69629;SDS011;56857;52.212;5.496;2023-02-10T11:05:30;29.85;;;13.85;;
69629;SDS011;56857;52.212;5.496;2023-02-10T11:07:58;26.27;;;12.60;;
69629;SDS011;56857;52.212;5.496;2023-02-10T11:10:26;25.17;;;12.35;;
69629;SDS011;56857;52.212;5.496;2023-02-10T11:12:58;27.58;;;13.30;;
69629;SDS011;56857;52.212;5.496;2023-02-10T11:17:50;26.80;;;13.25;;
69629;SDS011;56857;52.212;5.496;2023-02-10T11:20:22;21.58;;;12.63;;
69629;SDS011;56857;52.212;5.496;2023-02-10T11:23:00;28.50;;;11.63;;
69629;SDS011;56857;52.212;5.496;2023-02-10T11:25:39;37.65;;;12.27;;
69629;SDS011;56857;52.212;5.496;2023-02-10T11:28:07;22.50;;;11.13;;
69629;SDS011;56857;52.212;5.496;2023-02-10T11:30:42;26.83;;;11.45;;
69629;SDS011;56857;52.212;5.496;2023-02-10T11:33:19;23.88;;;11.07;;
69629;SDS011;56857;52.212;5.496;2023-02-10T11:35:53;26.20;;;11.32;;
69629;SDS011;56857;52.212;5.496;2023-02-10T11:38:26;20.85;;;9.90;;
69629;SDS011;56857;52.212;5.496;2023-02-10T11:40:53;23.00;;;11.30;;
69629;SDS011;56857;52.212;5.496;2023-02-10T11:43:28;26.02;;;11.85;;
69629;SDS011;56857;52.212;5.496;2023-02-10T11:45:57;24.13;;;11.18;;
69629;SDS011;56857;52.212;5.496;2023-02-10T11:48:26;20.92;;;10.27;;
69629;SDS011;56857;52.212;5.496;2023-02-10T11:51:03;22.25;;;10.38;;
69629;SDS011;56857;52.212;5.496;2023-02-10T11:53:39;25.73;;;11.40;;
69629;SDS011;56857;52.212;5.496;2023-02-10T11:59:02;22.05;;;10.27;;
69629;SDS011;56857;52.212;5.496;2023-02-10T12:15:28;23.25;;;10.02;;
69629;SDS011;56857;52.212;5.496;2023-02-10T12:18:23;20.90;;;9.73;;
69629;SDS011;56857;52.212;5.496;2023-02-10T12:23:57;21.23;;;9.25;;
69629;SDS011;56857;52.212;5.496;2023-02-10T12:32:15;23.65;;;10.18;;
69629;SDS011;56857;52.212;5.496;2023-02-10T12:34:48;23.30;;;9.88;;
69629;SDS011;56857;52.212;5.496;2023-02-10T12:40:22;22.77;;;8.90;;
69629;SDS011;56857;52.212;5.496;2023-02-10T12:45:37;20.85;;;9.13;;
69629;SDS011;56857;52.212;5.496;2023-02-10T12:51:06;22.80;;;10.70;;
69629;SDS011;56857;52.212;5.496;2023-02-10T12:53:38;21.08;;;9.75;;
69629;SDS011;56857;52.212;5.496;2023-02-10T12:56:15;19.30;;;9.25;;
69629;SDS011;56857;52.212;5.496;2023-02-10T12:58:47;22.25;;;9.32;;
69629;SDS011;56857;52.212;5.496;2023-02-10T13:01:22;21.02;;;8.63;;
69629;SDS011;56857;52.212;5.496;2023-02-10T13:04:11;24.20;;;9.35;;
69629;SDS011;56857;52.212;5.496;2023-02-10T13:06:46;22.23;;;9.30;;
69629;SDS011;56857;52.212;5.496;2023-02-10T13:09:30;21.40;;;8.43;;
69629;SDS011;56857;52.212;5.496;2023-02-10T13:15:03;23.08;;;9.35;;
69629;SDS011;56857;52.212;5.496;2023-02-10T13:17:48;20.63;;;8.60;;
69629;SDS011;56857;52.212;5.496;2023-02-10T13:20:22;21.67;;;9.07;;
69629;SDS011;56857;52.212;5.496;2023-02-10T13:23:13;24.70;;;9.77;;
69629;SDS011;56857;52.212;5.496;2023-02-10T13:34:31;25.83;;;10.88;;
69629;SDS011;56857;52.212;5.496;2023-02-10T13:37:35;25.17;;;10.25;;
69629;SDS011;56857;52.212;5.496;2023-02-10T13:39:37;25.90;;;10.45;;
69629;SDS011;56857;52.212;5.496;2023-02-10T13:42:09;23.75;;;10.18;;
69629;SDS011;56857;52.212;5.496;2023-02-10T13:47:59;27.38;;;11.25;;
69629;SDS011;56857;52.212;5.496;2023-02-10T13:50:31;25.13;;;12.07;;
69629;SDS011;56857;52.212;5.496;2023-02-10T13:56:01;28.42;;;10.65;;
69629;SDS011;56857;52.212;5.496;2023-02-10T13:58:31;27.50;;;11.18;;
69629;SDS011;56857;52.212;5.496;2023-02-10T14:00:59;27.40;;;11.07;;
69629;SDS011;56857;52.212;5.496;2023-02-10T14:03:27;30.70;;;12.55;;
69629;SDS011;56857;52.212;5.496;2023-02-10T14:06:10;26.70;;;11.05;;
69629;SDS011;56857;52.212;5.496;2023-02-10T14:08:39;24.77;;;12.40;;
69629;SDS011;56857;52.212;5.496;2023-02-10T14:13:42;23.98;;;11.48;;
69629;SDS011;56857;52.212;5.496;2023-02-10T14:18:46;30.42;;;13.18;;
69629;SDS011;56857;52.212;5.496;2023-02-10T14:21:40;29.48;;;13.52;;
69629;SDS011;56857;52.212;5.496;2023-02-10T14:24:21;32.85;;;14.10;;
69629;SDS011;56857;52.212;5.496;2023-02-10T14:26:49;30.13;;;16.33;;
69629;SDS011;56857;52.212;5.496;2023-02-10T14:29:17;34.47;;;15.75;;
69629;SDS011;56857;52.212;5.496;2023-02-10T14:31:53;37.30;;;16.27;;
69629;SDS011;56857;52.212;5.496;2023-02-10T14:34:24;40.58;;;16.85;;
69629;SDS011;56857;52.212;5.496;2023-02-10T14:36:56;32.85;;;16.13;;
69629;SDS011;56857;52.212;5.496;2023-02-10T14:39:27;35.85;;;17.27;;
69629;SDS011;56857;52.212;5.496;2023-02-10T14:41:55;36.13;;;17.73;;
69629;SDS011;56857;52.212;5.496;2023-02-10T14:44:34;39.58;;;19.08;;
69629;SDS011;56857;52.212;5.496;2023-02-10T14:49:58;41.97;;;19.35;;
69629;SDS011;56857;52.212;5.496;2023-02-10T14:52:28;42.33;;;19.38;;
69629;SDS011;56857;52.212;5.496;2023-02-10T14:55:02;44.42;;;20.45;;
69629;SDS011;56857;52.212;5.496;2023-02-10T14:57:46;46.10;;;21.35;;
69629;SDS011;56857;52.212;5.496;2023-02-10T15:00:11;44.42;;;21.30;;
69629;SDS011;56857;52.212;5.496;2023-02-10T15:02:37;43.53;;;21.58;;
69629;SDS011;56857;52.212;5.496;2023-02-10T15:05:06;40.50;;;21.20;;
69629;SDS011;56857;52.212;5.496;2023-02-10T15:07:35;44.85;;;20.58;;
69629;SDS011;56857;52.212;5.496;2023-02-10T15:13:05;42.70;;;22.25;;
69629;SDS011;56857;52.212;5.496;2023-02-10T15:15:34;44.83;;;22.00;;
69629;SDS011;56857;52.212;5.496;2023-02-10T15:18:04;49.85;;;22.88;;
69629;SDS011;56857;52.212;5.496;2023-02-10T15:20:35;46.60;;;22.88;;
69629;SDS011;56857;52.212;5.496;2023-02-10T15:23:12;45.17;;;22.23;;
69629;SDS011;56857;52.212;5.496;2023-02-10T15:25:39;45.72;;;22.83;;
69629;SDS011;56857;52.212;5.496;2023-02-10T15:30:40;48.00;;;24.17;;
69629;SDS011;56857;52.212;5.496;2023-02-10T15:33:10;46.63;;;24.08;;
69629;SDS011;56857;52.212;5.496;2023-02-10T15:36:02;47.30;;;23.08;;
69629;SDS011;56857;52.212;5.496;2023-02-10T15:38:41;49.53;;;24.58;;
69629;SDS011;56857;52.212;5.496;2023-02-10T15:46:48;45.38;;;21.85;;
69629;SDS011;56857;52.212;5.496;2023-02-10T15:49:18;47.60;;;22.08;;
69629;SDS011;56857;52.212;5.496;2023-02-10T15:54:16;38.25;;;19.50;;
69629;SDS011;56857;52.212;5.496;2023-02-10T15:59:28;38.40;;;19.67;;
69629;SDS011;56857;52.212;5.496;2023-02-10T16:01:55;43.38;;;22.00;;
69629;SDS011;56857;52.212;5.496;2023-02-10T16:04:25;40.08;;;20.60;;
69629;SDS011;56857;52.212;5.496;2023-02-10T16:06:52;41.20;;;20.63;;
69629;SDS011;56857;52.212;5.496;2023-02-10T16:09:17;38.17;;;18.80;;
69629;SDS011;56857;52.212;5.496;2023-02-10T16:11:42;42.53;;;19.33;;
69629;SDS011;56857;52.212;5.496;2023-02-10T16:14:08;40.95;;;20.75;;
69629;SDS011;56857;52.212;5.496;2023-02-10T16:16:34;42.70;;;19.55;;
69629;SDS011;56857;52.212;5.496;2023-02-10T16:19:03;41.30;;;20.42;;
69629;SDS011;56857;52.212;5.496;2023-02-10T16:21:30;39.30;;;19.33;;
69629;SDS011;56857;52.212;5.496;2023-02-10T16:23:55;40.53;;;20.15;;
69629;SDS011;56857;52.212;5.496;2023-02-10T16:26:22;39.28;;;20.48;;
69629;SDS011;56857;52.212;5.496;2023-02-10T16:28:48;39.70;;;20.23;;
69629;SDS011;56857;52.212;5.496;2023-02-10T16:31:15;38.15;;;18.92;;
69629;SDS011;56857;52.212;5.496;2023-02-10T16:33:40;34.67;;;19.08;;
69629;SDS011;56857;52.212;5.496;2023-02-10T16:36:06;40.80;;;19.88;;
69629;SDS011;56857;52.212;5.496;2023-02-10T16:38:31;46.22;;;21.60;;
69629;SDS011;56857;52.212;5.496;2023-02-10T16:40:57;44.20;;;21.75;;
69629;SDS011;56857;52.212;5.496;2023-02-10T16:43:22;45.85;;;22.17;;
69629;SDS011;56857;52.212;5.496;2023-02-10T16:45:47;52.70;;;23.20;;
69629;SDS011;56857;52.212;5.496;2023-02-10T16:48:12;43.37;;;21.40;;
69629;SDS011;56857;52.212;5.496;2023-02-10T16:50:39;38.67;;;21.27;;
69629;SDS011;56857;52.212;5.496;2023-02-10T16:53:07;41.67;;;21.92;;
69629;SDS011;56857;52.212;5.496;2023-02-10T16:55:34;40.45;;;21.90;;
69629;SDS011;56857;52.212;5.496;2023-02-10T16:58:00;43.15;;;21.10;;
69629;SDS011;56857;52.212;5.496;2023-02-10T17:00:26;38.58;;;20.42;;
69629;SDS011;56857;52.212;5.496;2023-02-10T17:02:51;47.15;;;22.13;;
69629;SDS011;56857;52.212;5.496;2023-02-10T17:05:18;43.55;;;21.77;;
69629;SDS011;56857;52.212;5.496;2023-02-10T17:07:43;43.17;;;22.13;;
69629;SDS011;56857;52.212;5.496;2023-02-10T17:10:13;37.33;;;20.52;;
69629;SDS011;56857;52.212;5.496;2023-02-10T17:12:42;42.42;;;20.65;;
69629;SDS011;56857;52.212;5.496;2023-02-10T17:15:07;43.08;;;21.10;;
69629;SDS011;56857;52.212;5.496;2023-02-10T17:17:33;41.15;;;20.33;;
69629;SDS011;56857;52.212;5.496;2023-02-10T17:19:58;41.65;;;22.15;;
69629;SDS011;56857;52.212;5.496;2023-02-10T17:22:24;50.50;;;22.70;;
69629;SDS011;56857;52.212;5.496;2023-02-10T17:24:49;46.20;;;21.50;;
69629;SDS011;56857;52.212;5.496;2023-02-10T17:27:15;43.08;;;20.38;;
69629;SDS011;56857;52.212;5.496;2023-02-10T17:29:42;45.58;;;21.88;;
69629;SDS011;56857;52.212;5.496;2023-02-10T17:32:07;38.25;;;20.38;;
69629;SDS011;56857;52.212;5.496;2023-02-10T17:34:33;38.20;;;20.77;;
69629;SDS011;56857;52.212;5.496;2023-02-10T17:36:59;44.35;;;23.10;;
69629;SDS011;56857;52.212;5.496;2023-02-10T17:39:25;40.13;;;19.95;;
69629;SDS011;56857;52.212;5.496;2023-02-10T17:41:50;39.60;;;21.83;;
69629;SDS011;56857;52.212;5.496;2023-02-10T17:44:19;41.53;;;21.02;;
69629;SDS011;56857;52.212;5.496;2023-02-10T17:46:52;41.30;;;20.48;;
69629;SDS011;56857;52.212;5.496;2023-02-10T17:49:17;40.15;;;20.77;;
69629;SDS011;56857;52.212;5.496;2023-02-10T17:51:43;41.37;;;21.10;;
69629;SDS011;56857;52.212;5.496;2023-02-10T17:54:09;43.67;;;20.60;;
69629;SDS011;56857;52.212;5.496;2023-02-10T17:56:34;38.60;;;20.05;;
69629;SDS011;56857;52.212;5.496;2023-02-10T17:59:03;36.67;;;19.67;;
69629;SDS011;56857;52.212;5.496;2023-02-10T18:01:29;40.50;;;19.77;;
69629;SDS011;56857;52.212;5.496;2023-02-10T18:03:54;39.50;;;21.73;;
69629;SDS011;56857;52.212;5.496;2023-02-10T18:06:20;39.63;;;22.00;;
69629;SDS011;56857;52.212;5.496;2023-02-10T18:08:46;38.65;;;20.85;;
69629;SDS011;56857;52.212;5.496;2023-02-10T18:11:12;38.97;;;20.88;;
69629;SDS011;56857;52.212;5.496;2023-02-10T18:13:38;37.80;;;19.08;;
69629;SDS011;56857;52.212;5.496;2023-02-10T18:16:04;38.22;;;19.42;;
69629;SDS011;56857;52.212;5.496;2023-02-10T18:18:32;34.45;;;18.55;;
69629;SDS011;56857;52.212;5.496;2023-02-10T18:20:57;36.00;;;18.55;;
69629;SDS011;56857;52.212;5.496;2023-02-10T18:23:22;33.92;;;18.55;;
69629;SDS011;56857;52.212;5.496;2023-02-10T18:25:48;36.50;;;17.92;;
69629;SDS011;56857;52.212;5.496;2023-02-10T18:28:14;40.60;;;19.73;;
69629;SDS011;56857;52.212;5.496;2023-02-10T18:30:42;37.33;;;18.50;;
69629;SDS011;56857;52.212;5.496;2023-02-10T18:33:10;37.85;;;17.30;;
69629;SDS011;56857;52.212;5.496;2023-02-10T18:35:35;39.33;;;19.73;;
69629;SDS011;56857;52.212;5.496;2023-02-10T18:38:01;32.85;;;18.58;;
69629;SDS011;56857;52.212;5.496;2023-02-10T18:40:27;33.53;;;18.52;;
69629;SDS011;56857;52.212;5.496;2023-02-10T18:42:53;32.88;;;18.33;;
69629;SDS011;56857;52.212;5.496;2023-02-10T18:45:19;32.55;;;16.55;;
69629;SDS011;56857;52.212;5.496;2023-02-10T18:47:44;33.47;;;16.55;;
69629;SDS011;56857;52.212;5.496;2023-02-10T18:50:10;32.75;;;17.23;;
69629;SDS011;56857;52.212;5.496;2023-02-10T18:52:36;37.90;;;19.20;;
69629;SDS011;56857;52.212;5.496;2023-02-10T18:55:01;33.80;;;18.30;;
69629;SDS011;56857;52.212;5.496;2023-02-10T18:57:27;32.58;;;16.85;;
69629;SDS011;56857;52.212;5.496;2023-02-10T18:59:59;34.17;;;17.20;;
69629;SDS011;56857;52.212;5.496;2023-02-10T19:02:25;33.25;;;16.45;;
69629;SDS011;56857;52.212;5.496;2023-02-10T19:04:51;29.48;;;16.02;;
69629;SDS011;56857;52.212;5.496;2023-02-10T19:07:17;34.95;;;16.17;;
69629;SDS011;56857;52.212;5.496;2023-02-10T19:09:43;27.02;;;14.18;;
69629;SDS011;56857;52.212;5.496;2023-02-10T19:12:08;33.17;;;15.20;;
69629;SDS011;56857;52.212;5.496;2023-02-10T19:14:33;29.40;;;13.32;;
69629;SDS011;56857;52.212;5.496;2023-02-10T19:16:59;25.30;;;13.25;;
69629;SDS011;56857;52.212;5.496;2023-02-10T19:19:25;28.50;;;13.90;;
69629;SDS011;56857;52.212;5.496;2023-02-10T19:21:52;26.27;;;14.25;;